Time;durP1;ratioP1;P1;durP2;ratioP2;P2;SDS_P1;SDS_P2;PMS_P1;PMS_P2;Temp;Humidity;BMP_temperature;BMP_pressure;BME280_temperature;BME280_humidity;BME280_pressure;Samples;Min_cycle;Max_cycle;Signal;HPM_P1;HPM_P2
2023/12/06 00:01:32;;;;;;;19.08;11.43;;;2.90;99.90;;;3.42;100.00;99858.66;5024137;28;20108;-82
2023/12/06 00:03:57;;;;;;;16.60;11.40;;;2.80;99.90;;;3.42;100.00;99850.56;5031752;28;20038;-82
2023/12/06 00:06:24;;;;;;;17.00;11.18;;;2.80;99.90;;;3.47;100.00;99858.94;5032241;28;20030;-82
2023/12/06 00:08:52;;;;;;;16.63;11.05;;;2.80;99.90;;;3.46;100.00;99857.28;5025273;28;20389;-82
2023/12/06 00:11:19;;;;;;;18.83;11.23;;;2.90;99.90;;;3.48;100.00;99860.63;5023762;28;20110;-83
2023/12/06 00:13:44;;;;;;;18.38;10.63;;;2.90;99.90;;;3.45;100.00;99863.69;5032721;28;20033;-82
2023/12/06 00:16:10;;;;;;;16.52;10.20;;;2.80;99.90;;;3.41;100.00;99857.00;5019858;28;20060;-82
2023/12/06 00:18:36;;;;;;;18.45;10.50;;;2.80;99.90;;;3.43;100.00;99863.88;5022400;28;20081;-83
2023/12/06 00:21:02;;;;;;;16.90;10.57;;;2.80;99.90;;;3.44;100.00;99873.63;5025337;28;20030;-81
2023/12/06 00:23:27;;;;;;;16.13;10.30;;;2.80;99.90;;;3.46;100.00;99865.38;5023000;28;20045;-83
2023/12/06 00:25:53;;;;;;;17.02;10.10;;;2.80;99.90;;;3.51;100.00;99871.03;5031733;28;20033;-82
2023/12/06 00:28:19;;;;;;;16.27;10.38;;;2.80;99.90;;;3.53;100.00;99868.97;5027196;28;20041;-82
2023/12/06 00:30:45;;;;;;;17.45;10.55;;;2.80;99.90;;;3.47;100.00;99872.44;5031522;28;20038;-82
2023/12/06 00:33:10;;;;;;;16.13;10.32;;;2.80;99.90;;;3.39;100.00;99872.53;5026651;28;20037;-82
2023/12/06 00:35:36;;;;;;;18.55;11.30;;;2.80;99.90;;;3.36;100.00;99871.06;5027610;28;20042;-82
2023/12/06 00:38:02;;;;;;;16.75;10.32;;;2.80;99.90;;;3.36;100.00;99875.59;5027365;28;20029;-83
2023/12/06 00:40:28;;;;;;;16.75;10.95;;;2.70;99.90;;;3.37;100.00;99866.47;5026227;28;20038;-83
2023/12/06 00:42:53;;;;;;;19.40;11.00;;;2.70;99.90;;;3.44;100.00;99864.69;5031814;28;20064;-82
2023/12/06 00:45:20;;;;;;;16.58;10.38;;;2.70;99.90;;;3.44;100.00;99875.47;5031587;28;20083;-82
2023/12/06 00:47:45;;;;;;;20.08;11.27;;;2.80;99.90;;;3.45;100.00;99879.88;5030769;28;20037;-83
2023/12/06 00:50:11;;;;;;;18.35;11.05;;;2.80;99.90;;;3.47;100.00;99879.66;5026208;28;20040;-81
2023/12/06 00:52:37;;;;;;;15.63;10.50;;;2.80;99.90;;;3.45;100.00;99878.00;5036535;28;20692;-81
2023/12/06 00:55:04;;;;;;;18.08;11.00;;;2.80;99.90;;;3.44;100.00;99879.03;5030195;28;20051;-82
2023/12/06 00:57:29;;;;;;;15.82;10.25;;;2.80;99.90;;;3.44;100.00;99880.88;5019391;28;20112;-82
2023/12/06 00:59:55;;;;;;;15.77;11.05;;;2.70;99.90;;;3.40;100.00;99879.59;5032236;28;20172;-83
2023/12/06 01:02:21;;;;;;;18.63;10.77;;;2.70;99.90;;;3.26;100.00;99876.75;5023870;28;20037;-83
2023/12/06 01:04:50;;;;;;;18.17;11.57;;;2.70;99.90;;;3.19;100.00;99873.13;5039070;28;20488;-83
2023/12/06 01:07:17;;;;;;;17.95;12.07;;;2.60;99.90;;;3.20;100.00;99876.66;5019372;28;20562;-84
2023/12/06 01:09:44;;;;;;;18.53;11.60;;;2.60;99.90;;;3.22;100.00;99880.84;5029354;28;20362;-83
2023/12/06 01:12:10;;;;;;;20.23;11.90;;;2.60;99.90;;;3.21;100.00;99883.72;5029003;28;20093;-83
2023/12/06 01:14:36;;;;;;;17.90;11.63;;;2.60;99.90;;;3.20;100.00;99887.44;5023040;28;20038;-84
2023/12/06 01:17:02;;;;;;;18.90;11.45;;;2.60;99.90;;;3.24;100.00;99894.09;5022156;28;20037;-84
2023/12/06 01:19:27;;;;;;;20.42;12.55;;;2.60;99.90;;;3.20;100.00;99890.97;5025878;28;20033;-83
2023/12/06 01:21:53;;;;;;;18.55;12.13;;;2.50;99.90;;;3.20;100.00;99907.16;5018799;28;20066;-83
2023/12/06 01:24:19;;;;;;;19.83;12.27;;;2.50;99.90;;;3.21;100.00;99898.03;5024700;28;20050;-83
2023/12/06 01:26:45;;;;;;;19.65;12.75;;;2.50;99.90;;;3.20;100.00;99904.44;5033309;28;20045;-83
2023/12/06 01:29:11;;;;;;;21.40;13.00;;;2.50;99.90;;;3.23;100.00;99909.47;5019987;28;20042;-83
2023/12/06 01:31:38;;;;;;;21.30;12.02;;;2.50;99.90;;;3.19;100.00;99915.41;5030239;28;20183;-83
2023/12/06 01:34:05;;;;;;;19.67;11.68;;;2.50;99.90;;;2.97;100.00;99910.75;5014226;28;20050;-83
2023/12/06 01:36:32;;;;;;;20.15;12.32;;;2.50;99.90;;;2.90;100.00;99906.28;5024677;28;20044;-83
2023/12/06 01:38:58;;;;;;;20.40;12.68;;;2.40;99.90;;;2.62;100.00;99912.28;5024650;28;20076;-84
2023/12/06 01:41:23;;;;;;;23.88;12.82;;;2.30;99.90;;;2.39;100.00;99905.94;5024696;28;20454;-84
2023/12/06 01:43:49;;;;;;;18.52;10.98;;;2.30;99.90;;;2.37;100.00;99901.75;5042074;28;20041;-84
2023/12/06 01:46:15;;;;;;;19.08;11.88;;;2.30;99.90;;;2.50;100.00;99890.34;5021291;28;20057;-84
2023/12/06 01:48:43;;;;;;;21.77;11.85;;;2.30;99.90;;;2.50;100.00;99882.28;5015488;28;20041;-85
2023/12/06 01:51:12;;;;;;;20.10;12.05;;;2.40;99.90;;;2.69;100.00;99894.38;5022119;28;20501;-84
2023/12/06 01:53:38;;;;;;;19.80;11.05;;;2.40;99.90;;;2.69;100.00;99892.53;5019761;28;20091;-84
2023/12/06 01:56:07;;;;;;;18.02;9.70;;;2.40;99.90;;;2.63;100.00;99901.31;5029774;28;20436;-85
2023/12/06 01:58:38;;;;;;;14.40;8.43;;;2.40;99.90;;;2.58;100.00;99903.72;5032378;28;20123;-83
2023/12/06 02:01:05;;;;;;;11.63;7.85;;;2.30;99.90;;;2.46;100.00;99910.59;5038681;28;20049;-83
2023/12/06 02:03:34;;;;;;;10.18;6.55;;;2.30;99.90;;;2.41;100.00;99916.50;5017114;28;20041;-83
2023/12/06 02:06:07;;;;;;;8.65;5.70;;;2.20;99.90;;;2.40;100.00;99926.47;5030022;28;20512;-84
2023/12/06 02:08:35;;;;;;;9.18;5.47;;;2.20;99.90;;;2.14;100.00;99905.28;5025775;28;20095;-83
2023/12/06 02:11:03;;;;;;;10.10;5.78;;;2.10;99.90;;;2.13;100.00;99915.22;5032769;28;20045;-84
2023/12/06 02:13:29;;;;;;;;;;;2.10;99.90;;;2.17;100.00;99913.00;5034747;28;20133;-84
2023/12/06 02:15:56;;;;;;;8.23;5.18;;;2.00;99.90;;;2.13;100.00;99923.28;5021731;28;19956;-85
2023/12/06 02:18:26;;;;;;;8.65;5.50;;;2.00;99.90;;;2.05;100.00;99915.25;5028658;28;20037;-84
2023/12/06 02:20:53;;;;;;;9.20;5.70;;;2.00;99.90;;;2.22;100.00;99923.22;5027820;28;20037;-84
2023/12/06 02:23:24;;;;;;;10.70;6.05;;;1.90;99.90;;;2.20;100.00;99922.56;5046129;28;20037;-85
2023/12/06 02:25:50;;;;;;;11.20;5.72;;;1.90;99.90;;;2.11;100.00;99909.16;5028888;28;20071;-84
2023/12/06 02:28:16;;;;;;;9.52;5.95;;;1.90;99.90;;;2.09;100.00;99911.19;5020150;28;20170;-84
2023/12/06 02:30:42;;;;;;;9.93;6.22;;;1.80;99.90;;;1.96;100.00;99901.03;5024923;28;20036;-84
2023/12/06 02:33:07;;;;;;;11.95;6.50;;;1.80;99.90;;;2.07;100.00;99907.03;5025472;28;20110;-84
2023/12/06 02:35:45;;;;;;;10.75;7.13;;;1.80;99.90;;;2.13;100.00;99895.53;5017774;28;20049;-84
2023/12/06 02:38:14;;;;;;;12.23;6.95;;;1.80;99.90;;;2.14;100.00;99903.44;5028193;28;20051;-85
2023/12/06 02:40:43;;;;;;;12.55;7.47;;;1.80;99.90;;;2.21;100.00;99902.72;5035763;28;20037;-84
2023/12/06 02:43:09;;;;;;;13.98;8.43;;;1.80;99.90;;;2.27;100.00;99904.69;5028315;28;20072;-84
2023/12/06 02:45:35;;;;;;;14.90;8.25;;;1.80;99.90;;;2.29;100.00;99910.72;5024608;28;20037;-85
2023/12/06 02:48:04;;;;;;;14.02;8.02;;;1.80;99.90;;;2.27;100.00;99901.97;5025025;28;20112;-84
2023/12/06 02:50:29;;;;;;;15.65;9.30;;;1.90;99.90;;;2.34;100.00;99904.78;5024984;28;20064;-85
2023/12/06 02:52:55;;;;;;;17.10;10.00;;;1.90;99.90;;;2.21;100.00;99900.03;5023320;28;20509;-85
2023/12/06 02:55:21;;;;;;;15.73;8.98;;;1.90;99.90;;;2.39;100.00;99897.84;5025408;28;20045;-85
2023/12/06 02:57:47;;;;;;;16.90;9.35;;;1.90;99.90;;;2.23;100.00;99908.75;5023270;28;20059;-85
2023/12/06 03:00:13;;;;;;;17.10;9.40;;;1.90;99.90;;;2.09;100.00;99903.13;5029498;28;20049;-85
2023/12/06 03:02:38;;;;;;;20.13;9.65;;;1.90;99.90;;;2.34;100.00;99908.31;5038052;28;20044;-85
2023/12/06 03:05:04;;;;;;;17.80;9.75;;;1.90;99.90;;;2.34;100.00;99910.19;5020560;28;20046;-85
2023/12/06 03:07:30;;;;;;;21.42;10.55;;;1.90;99.90;;;2.31;100.00;99908.69;5021330;28;20034;-84
2023/12/06 03:09:56;;;;;;;19.48;10.25;;;1.90;99.90;;;2.29;100.00;99908.88;5026964;28;20045;-84
2023/12/06 03:12:22;;;;;;;19.05;10.18;;;1.90;99.90;;;2.26;100.00;99914.63;5029028;28;20351;-85
2023/12/06 03:14:47;;;;;;;20.08;10.85;;;1.80;99.90;;;2.17;100.00;99912.16;5018924;28;20473;-84
2023/12/06 03:17:13;;;;;;;16.67;10.38;;;1.80;99.90;;;2.20;100.00;99909.13;5023570;28;20041;-86
2023/12/06 03:19:39;;;;;;;17.98;10.57;;;1.80;99.90;;;2.19;100.00;99910.94;5028922;28;20037;-86
2023/12/06 03:22:04;;;;;;;19.15;10.88;;;1.80;99.90;;;2.13;100.00;99911.69;5029538;28;20033;-85
2023/12/06 03:24:30;;;;;;;16.95;10.27;;;1.80;99.90;;;2.19;100.00;99910.13;5032022;28;20038;-85
2023/12/06 03:26:56;;;;;;;19.10;10.68;;;1.70;99.90;;;2.16;100.00;99914.00;5021466;28;20053;-85
2023/12/06 03:29:21;;;;;;;18.33;10.50;;;1.70;99.90;;;2.23;100.00;99925.72;5030421;28;20056;-85
2023/12/06 03:31:47;;;;;;;17.42;10.80;;;1.70;99.90;;;2.20;100.00;99927.97;5025631;28;20029;-86
2023/12/06 03:34:13;;;;;;;21.13;10.80;;;1.70;99.90;;;2.02;100.00;99937.16;5028981;28;20448;-85
2023/12/06 03:36:39;;;;;;;20.55;10.45;;;1.70;99.90;;;2.00;100.00;99940.03;5032195;28;20029;-84
2023/12/06 03:39:04;;;;;;;20.33;11.02;;;1.70;99.90;;;1.97;100.00;99928.78;5023295;28;20041;-85
2023/12/06 03:41:30;;;;;;;20.00;11.40;;;1.60;99.90;;;2.00;100.00;99936.50;5027097;28;20037;-85
2023/12/06 03:43:56;;;;;;;17.98;10.52;;;1.70;99.90;;;1.87;100.00;99923.63;5033226;28;20099;-85
2023/12/06 03:46:21;;;;;;;20.88;11.60;;;1.70;99.90;;;1.75;100.00;99942.00;5019063;28;20035;-85
2023/12/06 03:48:47;;;;;;;18.13;10.73;;;1.60;99.90;;;1.89;100.00;99944.97;5024975;28;20048;-85
2023/12/06 03:51:13;;;;;;;20.08;10.68;;;1.60;99.90;;;1.97;100.00;99944.91;5021029;28;20041;-85
2023/12/06 03:53:38;;;;;;;19.33;10.30;;;1.60;99.90;;;1.82;100.00;99956.41;5027748;28;20038;-85
2023/12/06 03:56:04;;;;;;;16.85;9.88;;;1.60;99.90;;;1.87;100.00;99955.91;5016517;28;20041;-85
2023/12/06 03:58:30;;;;;;;17.73;10.32;;;1.60;99.90;;;1.96;100.00;99959.38;5022749;28;20034;-85
2023/12/06 04:00:56;;;;;;;17.88;9.73;;;1.60;99.90;;;1.94;100.00;99966.81;5026402;28;20056;-85
2023/12/06 04:03:22;;;;;;;19.45;10.55;;;1.50;99.90;;;1.92;100.00;99966.16;5023273;28;20034;-84
2023/12/06 04:05:47;;;;;;;15.40;8.57;;;1.50;99.90;;;1.67;100.00;99974.34;5033827;28;20404;-84
2023/12/06 04:08:13;;;;;;;18.65;10.55;;;1.50;99.90;;;1.71;100.00;99976.47;5032964;28;20111;-84
2023/12/06 04:10:39;;;;;;;17.13;9.70;;;1.50;99.90;;;1.85;100.00;99968.69;5031976;28;20140;-84
2023/12/06 04:13:05;;;;;;;19.33;10.35;;;1.50;99.90;;;1.71;100.00;99978.34;5029416;28;20120;-83
2023/12/06 04:15:31;;;;;;;19.90;10.45;;;1.50;99.90;;;1.75;100.00;99981.53;5043514;28;20041;-84
2023/12/06 04:17:57;;;;;;;21.40;10.75;;;1.50;99.90;;;1.59;100.00;99985.97;5035784;28;20037;-83
2023/12/06 04:20:23;;;;;;;21.60;11.90;;;1.50;99.90;;;1.40;100.00;99981.84;5036478;28;20041;-83
2023/12/06 04:22:49;;;;;;;23.17;12.07;;;1.50;99.90;;;1.66;100.00;99978.03;5027784;28;20397;-83
2023/12/06 04:25:15;;;;;;;21.38;11.27;;;1.50;99.90;;;1.74;100.00;99975.31;5037688;28;20060;-83
2023/12/06 04:27:42;;;;;;;22.17;11.15;;;1.50;99.90;;;1.64;100.00;99983.56;5027038;28;20041;-84
2023/12/06 04:30:10;;;;;;;24.63;11.18;;;1.40;99.90;;;1.79;100.00;99988.22;5007207;28;20482;-84
2023/12/06 04:32:36;;;;;;;22.10;11.10;;;1.40;99.90;;;1.60;100.00;99992.19;5034499;28;20029;-83
2023/12/06 04:35:03;;;;;;;22.73;11.43;;;1.40;99.90;;;1.65;100.00;99995.19;5031690;28;20396;-83
2023/12/06 04:37:28;;;;;;;26.48;12.23;;;1.40;99.90;;;1.51;100.00;99986.00;5031442;28;20042;-83
2023/12/06 04:39:54;;;;;;;23.95;11.98;;;1.40;99.90;;;1.28;100.00;99982.19;5026883;28;20034;-82
2023/12/06 04:42:20;;;;;;;25.00;12.35;;;1.40;99.90;;;1.09;100.00;99975.34;5029089;28;20036;-83
2023/12/06 04:44:46;;;;;;;26.30;13.13;;;1.40;99.90;;;1.19;100.00;99969.78;5042041;28;20046;-84
2023/12/06 04:47:12;;;;;;;30.20;14.15;;;1.40;99.90;;;1.09;100.00;99982.59;5024607;28;20030;-84
2023/12/06 04:49:37;;;;;;;28.27;13.50;;;1.40;99.90;;;1.17;100.00;99974.50;5029016;28;20049;-83
2023/12/06 04:52:04;;;;;;;31.98;13.77;;;1.40;99.90;;;1.15;100.00;99971.16;5006193;28;20033;-84
2023/12/06 04:54:29;;;;;;;32.40;15.82;;;1.30;99.90;;;1.13;100.00;99965.09;5027866;28;20114;-82
2023/12/06 04:56:55;;;;;;;28.98;14.30;;;1.30;99.90;;;1.37;100.00;99969.56;5037239;28;20046;-84
2023/12/06 04:59:21;;;;;;;32.53;14.75;;;1.30;99.90;;;1.21;100.00;99969.63;5017856;28;20574;-84
2023/12/06 05:01:46;;;;;;;30.50;14.98;;;1.30;99.90;;;1.38;100.00;99956.97;5034830;28;20034;-84
2023/12/06 05:04:12;;;;;;;31.05;14.75;;;1.30;99.90;;;1.20;100.00;99978.69;5034285;28;20112;-84
2023/12/06 05:06:38;;;;;;;33.83;15.13;;;1.30;99.90;;;1.40;100.00;99977.28;5034141;28;20037;-84
2023/12/06 05:09:10;;;;;;;33.63;15.75;;;1.30;99.90;;;1.16;100.00;99972.81;5029858;28;20379;-83
2023/12/06 05:11:36;;;;;;;31.30;14.45;;;1.30;99.90;;;1.41;100.00;99975.44;5047695;28;20839;-83
2023/12/06 05:14:02;;;;;;;33.88;14.93;;;1.30;99.90;;;1.19;100.00;99975.16;5046788;28;20041;-83
2023/12/06 05:16:28;;;;;;;30.88;15.18;;;1.30;99.90;;;1.33;100.00;99970.09;5049484;28;20048;-84
2023/12/06 05:18:54;;;;;;;26.83;13.18;;;1.20;99.90;;;1.08;100.00;99962.94;5054954;28;20045;-83
2023/12/06 05:21:20;;;;;;;26.85;13.98;;;1.20;99.90;;;1.16;100.00;99967.44;5066903;28;20045;-84
2023/12/06 05:23:45;;;;;;;28.08;13.93;;;1.20;99.90;;;1.09;100.00;99980.72;5049773;28;20049;-84
2023/12/06 05:26:11;;;;;;;30.55;14.75;;;1.20;99.90;;;0.95;100.00;99984.94;5023614;28;20399;-84
2023/12/06 05:28:37;;;;;;;36.70;16.10;;;1.10;99.90;;;1.20;100.00;99984.91;5019574;28;20048;-85
2023/12/06 05:31:03;;;;;;;32.90;15.32;;;1.10;99.90;;;1.27;100.00;99985.88;5012875;28;20053;-85
2023/12/06 05:33:29;;;;;;;32.10;15.07;;;1.10;99.90;;;1.20;100.00;99990.28;5028777;28;20072;-85
2023/12/06 05:35:57;;;;;;;34.47;16.17;;;1.10;99.90;;;1.18;100.00;99999.50;5025517;28;20033;-85
2023/12/06 05:38:23;;;;;;;32.08;15.63;;;1.10;99.90;;;1.16;100.00;99997.00;5030212;28;20045;-83
2023/12/06 05:40:50;;;;;;;32.47;16.08;;;1.10;99.90;;;1.17;100.00;99997.84;5026808;28;20091;-83
2023/12/06 05:43:15;;;;;;;35.45;15.93;;;1.10;99.90;;;1.24;100.00;99999.66;5031888;28;20049;-84
2023/12/06 05:45:41;;;;;;;34.75;16.83;;;1.10;99.90;;;1.08;100.00;99999.72;5030988;28;20088;-83
2023/12/06 05:48:07;;;;;;;38.65;16.55;;;1.10;99.90;;;1.31;100.00;100009.72;5024074;28;20025;-82
2023/12/06 05:50:33;;;;;;;31.80;15.80;;;1.10;99.90;;;1.21;100.00;100010.75;5020235;28;20519;-84
2023/12/06 05:53:00;;;;;;;32.65;16.33;;;1.10;99.90;;;1.35;100.00;100000.34;5031478;28;20069;-83
2023/12/06 05:55:25;;;;;;;34.88;17.05;;;1.10;99.90;;;1.26;100.00;100019.16;5031906;28;20124;-82
2023/12/06 05:57:51;;;;;;;35.67;16.30;;;1.10;99.90;;;1.41;100.00;100021.97;5025895;28;20108;-84
2023/12/06 06:00:17;;;;;;;35.78;16.25;;;1.10;99.90;;;1.43;100.00;100024.50;5018410;28;20104;-83
2023/12/06 06:02:43;;;;;;;31.83;16.38;;;1.10;99.90;;;1.45;100.00;100025.16;5034731;28;20057;-86
2023/12/06 06:05:10;;;;;;;38.17;17.08;;;1.10;99.90;;;1.51;100.00;100037.09;5032610;28;20347;-83
2023/12/06 06:07:36;;;;;;;33.05;16.15;;;1.10;99.90;;;1.47;100.00;100035.75;5013888;28;20087;-85
2023/12/06 06:10:03;;;;;;;33.30;17.00;;;1.10;99.90;;;1.48;100.00;100042.81;5019764;28;20034;-85
2023/12/06 06:12:29;;;;;;;38.53;17.63;;;1.10;99.90;;;1.34;100.00;100042.50;5025493;28;20072;-85
2023/12/06 06:14:55;;;;;;;37.92;17.15;;;1.10;99.90;;;1.29;100.00;100044.84;5021737;28;20037;-85
2023/12/06 06:17:21;;;;;;;37.70;17.33;;;1.10;99.90;;;1.19;100.00;100055.78;5023509;28;20037;-84
2023/12/06 06:19:47;;;;;;;34.75;16.63;;;1.10;99.90;;;1.25;100.00;100056.97;5020811;28;20037;-85
2023/12/06 06:22:13;;;;;;;36.03;17.48;;;1.10;99.90;;;1.24;100.00;100048.03;5031695;28;20084;-85
2023/12/06 06:24:39;;;;;;;38.20;18.23;;;1.10;99.90;;;1.38;100.00;100064.50;5025268;28;20120;-84
2023/12/06 06:27:04;;;;;;;32.40;17.25;;;1.10;99.90;;;1.39;100.00;100060.81;5030775;28;20413;-85
2023/12/06 06:29:30;;;;;;;36.45;17.35;;;1.10;99.90;;;1.42;100.00;100063.97;5025628;28;20042;-85
2023/12/06 06:31:56;;;;;;;35.70;17.45;;;1.10;99.90;;;1.32;100.00;100071.38;5025233;28;20404;-84
2023/12/06 06:34:21;;;;;;;36.67;17.17;;;1.10;99.90;;;1.36;100.00;100072.72;5018901;28;20037;-85
2023/12/06 06:36:47;;;;;;;40.22;18.27;;;1.10;99.90;;;1.33;100.00;100074.94;5020017;28;20034;-83
2023/12/06 06:39:13;;;;;;;35.33;17.17;;;1.10;99.90;;;1.24;100.00;100074.91;5011733;28;20046;-84
2023/12/06 06:41:39;;;;;;;37.08;17.70;;;1.10;99.90;;;1.38;100.00;100068.00;5024236;28;20037;-83
2023/12/06 06:44:05;;;;;;;35.13;16.92;;;1.10;99.90;;;1.37;100.00;100069.03;5021742;28;20484;-84
2023/12/06 06:46:31;;;;;;;33.13;17.77;;;1.10;99.90;;;1.44;100.00;100080.75;5028035;28;20125;-83
2023/12/06 06:48:57;;;;;;;35.70;17.50;;;1.10;99.90;;;1.26;100.00;100072.91;5026644;28;20136;-84
2023/12/06 06:51:36;;;;;;;39.90;18.25;;;1.10;99.90;;;1.05;100.00;100084.19;5022317;28;20090;-85
2023/12/06 06:54:09;;;;;;;38.83;18.05;;;1.00;99.90;;;0.99;100.00;100091.06;5016098;28;20096;-85
2023/12/06 06:56:34;;;;;;;39.88;18.65;;;1.00;99.90;;;1.08;100.00;100097.28;5027594;28;20042;-85
2023/12/06 06:59:00;;;;;;;37.60;18.90;;;1.00;99.90;;;0.84;100.00;100104.31;5030101;28;20090;-84
2023/12/06 07:01:27;;;;;;;39.42;17.58;;;1.00;99.90;;;1.05;100.00;100097.59;5031404;28;20064;-85
2023/12/06 07:03:53;;;;;;;37.85;18.27;;;0.90;99.90;;;1.04;100.00;100104.00;5041993;28;20034;-84
2023/12/06 07:06:20;;;;;;;37.55;17.55;;;0.90;99.90;;;1.12;100.00;100103.97;5016146;28;20042;-84
2023/12/06 07:08:47;;;;;;;39.30;18.00;;;0.90;99.90;;;1.14;100.00;100111.88;5034159;28;20382;-85
2023/12/06 07:11:13;;;;;;;42.30;18.35;;;0.90;99.90;;;1.06;100.00;100109.19;5025785;28;20033;-84
2023/12/06 07:13:39;;;;;;;38.85;17.85;;;0.90;99.90;;;1.20;100.00;100126.50;5019320;28;20092;-85
2023/12/06 07:16:05;;;;;;;35.65;17.70;;;0.90;99.90;;;1.18;100.00;100129.34;5024085;28;20045;-84
2023/12/06 07:18:32;;;;;;;41.90;19.10;;;0.90;99.90;;;1.06;100.00;100136.03;5027319;28;20755;-85
2023/12/06 07:20:59;;;;;;;40.05;18.30;;;0.90;99.90;;;1.15;100.00;100151.19;5032588;28;20041;-83
2023/12/06 07:23:25;;;;;;;38.42;17.70;;;0.90;99.90;;;1.08;100.00;100142.94;5029734;28;20047;-84
2023/12/06 07:25:52;;;;;;;41.60;20.23;;;0.90;99.90;;;1.08;100.00;100144.81;5031459;28;20401;-82
2023/12/06 07:28:18;;;;;;;38.45;18.63;;;0.90;99.90;;;0.97;100.00;100148.66;5035865;28;20042;-82
2023/12/06 07:30:44;;;;;;;38.25;19.45;;;0.90;99.90;;;1.02;100.00;100146.31;5030695;28;20063;-83
2023/12/06 07:33:10;;;;;;;36.70;18.83;;;0.90;99.90;;;0.98;100.00;100156.53;5030911;28;20128;-81
2023/12/06 07:35:36;;;;;;;42.35;20.23;;;0.90;99.90;;;1.11;100.00;100157.91;5031704;28;20127;-81
2023/12/06 07:38:02;;;;;;;38.95;20.10;;;0.90;99.90;;;1.08;100.00;100151.00;5014636;28;20038;-81
2023/12/06 07:40:28;;;;;;;40.70;19.55;;;0.90;99.90;;;1.17;100.00;100153.69;5024901;28;20045;-82
2023/12/06 07:42:54;;;;;;;39.70;19.23;;;0.90;99.90;;;1.15;100.00;100159.25;5030650;28;20045;-81
2023/12/06 07:45:21;;;;;;;39.88;19.35;;;0.90;99.90;;;1.20;100.00;100174.88;5022247;28;20118;-81
2023/12/06 07:47:48;;;;;;;37.65;19.02;;;0.90;99.90;;;1.18;100.00;100166.97;5026018;28;20063;-81
2023/12/06 07:50:14;;;;;;;35.03;18.35;;;0.90;99.90;;;1.15;100.00;100178.06;5022426;28;20030;-81
2023/12/06 07:52:40;;;;;;;36.03;19.27;;;0.90;99.90;;;0.96;100.00;100177.34;5029392;28;20045;-81
2023/12/06 07:55:06;;;;;;;35.25;17.83;;;0.90;99.90;;;0.88;100.00;100177.34;5042687;28;20038;-80
2023/12/06 07:57:35;;;;;;;34.92;18.05;;;0.90;99.90;;;0.93;100.00;100160.72;5025981;28;20041;-81
2023/12/06 08:00:03;;;;;;;36.58;18.40;;;0.90;99.90;;;1.13;100.00;100188.13;5034028;28;20045;-81
2023/12/06 08:02:42;;;;;;;36.25;16.88;;;0.90;99.90;;;1.21;100.00;100187.31;5016517;28;20060;-81
2023/12/06 08:05:10;;;;;;;38.10;18.98;;;0.90;99.90;;;1.24;100.00;100193.16;5022788;28;20053;-80
2023/12/06 08:07:37;;;;;;;39.50;20.27;;;0.90;99.90;;;1.19;100.00;100195.53;5025919;28;20048;-81
2023/12/06 08:10:13;;;;;;;38.33;18.95;;;0.90;99.90;;;1.28;100.00;100189.13;5032050;28;20192;-81
2023/12/06 08:12:39;;;;;;;35.58;18.55;;;1.00;99.90;;;1.46;100.00;100204.28;5030002;28;20033;-81
2023/12/06 08:15:07;;;;;;;35.42;18.42;;;1.00;99.90;;;1.44;100.00;100208.97;5030881;28;20096;-81
2023/12/06 08:17:33;;;;;;;;;;;1.00;99.90;;;1.53;100.00;100209.81;5025321;28;20038;-82
2023/12/06 08:19:59;;;;;;;32.38;17.10;;;1.00;99.90;;;1.62;100.00;100203.44;5022046;28;19922;-81
2023/12/06 08:22:27;;;;;;;36.55;17.45;;;1.10;99.90;;;1.61;100.00;100203.63;5032620;28;20041;-80
2023/12/06 08:24:57;;;;;;;32.63;17.63;;;1.10;99.90;;;1.60;100.00;100212.69;5037970;28;20099;-81
2023/12/06 08:27:28;;;;;;;34.65;17.52;;;1.10;99.90;;;1.49;100.00;100217.38;5026332;28;20045;-81
2023/12/06 08:29:55;;;;;;;35.65;17.73;;;1.10;99.90;;;1.56;100.00;100220.25;5022660;28;20056;-80
2023/12/06 08:32:22;;;;;;;32.20;18.00;;;1.10;99.90;;;1.57;100.00;100222.75;5032493;28;20046;-80
2023/12/06 08:34:48;;;;;;;32.95;17.02;;;1.10;99.90;;;1.71;100.00;100218.53;5017979;28;20073;-80
2023/12/06 08:37:14;;;;;;;30.08;15.40;;;1.10;99.90;;;1.71;100.00;100226.59;5019227;28;20518;-80
2023/12/06 08:39:40;;;;;;;29.65;16.58;;;1.20;99.90;;;1.54;100.00;100223.09;5022850;28;20030;-80
2023/12/06 08:42:06;;;;;;;31.95;16.48;;;1.20;99.90;;;1.68;100.00;100232.31;5026807;28;20071;-80
2023/12/06 08:44:32;;;;;;;30.42;16.52;;;1.20;99.90;;;1.76;100.00;100236.88;5031752;28;20065;-80
2023/12/06 08:46:58;;;;;;;32.75;17.17;;;1.20;99.90;;;1.75;100.00;100234.38;5026096;28;20060;-80
2023/12/06 08:49:24;;;;;;;30.73;16.83;;;1.20;99.90;;;1.74;100.00;100225.44;5027353;28;20474;-79
2023/12/06 08:51:49;;;;;;;32.65;16.52;;;1.30;99.90;;;1.75;100.00;100237.06;5030103;28;20113;-81
2023/12/06 08:54:15;;;;;;;29.77;16.73;;;1.30;99.90;;;1.80;100.00;100245.44;5016100;28;20504;-79
2023/12/06 08:56:42;;;;;;;30.35;17.02;;;1.30;99.90;;;1.86;100.00;100245.63;5024206;28;20070;-80
2023/12/06 08:59:07;;;;;;;29.08;14.88;;;1.30;99.90;;;1.81;100.00;100256.03;5015546;28;20053;-80
2023/12/06 09:01:33;;;;;;;30.42;17.02;;;1.30;99.90;;;1.27;100.00;100241.22;5031965;28;20034;-80
2023/12/06 09:03:59;;;;;;;30.15;16.02;;;1.30;99.90;;;1.47;100.00;100240.91;5012589;28;20043;-80
2023/12/06 09:06:25;;;;;;;27.85;15.73;;;1.30;99.90;;;1.38;100.00;100252.66;5031136;28;20091;-80
2023/12/06 09:08:51;;;;;;;28.30;15.10;;;1.30;99.90;;;1.47;100.00;100257.03;5031070;28;20038;-81
2023/12/06 09:11:21;;;;;;;26.60;14.82;;;1.30;99.90;;;1.55;100.00;100254.34;5031647;28;20116;-81
2023/12/06 09:13:48;;;;;;;26.40;14.68;;;1.30;99.90;;;1.45;100.00;100261.75;5023841;28;20038;-81
2023/12/06 09:16:14;;;;;;;27.53;15.07;;;1.30;99.90;;;1.65;100.00;100259.56;5021237;28;20041;-80
2023/12/06 09:18:40;;;;;;;28.80;14.80;;;1.30;99.90;;;1.56;100.00;100265.97;5020717;28;20509;-81
2023/12/06 09:21:06;;;;;;;29.42;15.88;;;1.30;99.90;;;1.58;100.00;100264.75;5021811;28;20037;-81
2023/12/06 09:23:32;;;;;;;28.15;14.75;;;1.30;99.90;;;1.57;100.00;100267.63;5018305;28;20397;-80
2023/12/06 09:26:00;;;;;;;30.85;16.35;;;1.40;99.90;;;1.64;100.00;100267.81;5023849;28;20040;-80
2023/12/06 09:28:26;;;;;;;31.88;16.27;;;1.30;99.90;;;1.62;100.00;100275.22;5030646;28;20045;-81
2023/12/06 09:30:52;;;;;;;30.50;16.45;;;1.30;99.90;;;1.47;100.00;100265.09;5021109;28;20099;-80
2023/12/06 09:33:21;;;;;;;29.25;16.50;;;1.30;99.90;;;1.45;100.00;100264.44;5022709;28;20026;-80
2023/12/06 09:35:47;;;;;;;34.70;17.33;;;1.30;99.90;;;1.11;100.00;100278.81;5021111;28;20041;-80
2023/12/06 09:38:13;;;;;;;36.05;17.50;;;1.20;99.90;;;1.31;100.00;100265.94;5021299;28;20057;-79
2023/12/06 09:40:39;;;;;;;32.97;17.95;;;1.20;99.90;;;1.19;100.00;100269.91;5030241;28;20172;-80
2023/12/06 09:43:04;;;;;;;36.88;18.98;;;1.20;99.90;;;1.18;100.00;100269.09;5026769;28;20121;-80
2023/12/06 09:45:31;;;;;;;36.35;18.48;;;1.20;99.90;;;1.07;100.00;100258.66;5028719;28;20124;-81
2023/12/06 09:47:57;;;;;;;39.60;18.45;;;1.10;99.90;;;1.18;100.00;100276.28;5018843;28;20040;-79
2023/12/06 09:50:27;;;;;;;34.53;18.38;;;1.10;99.90;;;0.88;100.00;100290.16;5015954;28;20038;-79
2023/12/06 09:52:54;;;;;;;32.85;17.45;;;1.10;99.90;;;1.06;100.00;100283.81;5026905;28;20198;-80
2023/12/06 09:55:23;;;;;;;36.72;18.52;;;1.10;99.90;;;1.31;100.00;100289.25;5030349;28;20033;-79
2023/12/06 09:57:54;;;;;;;35.80;19.23;;;1.10;99.90;;;1.34;100.00;100291.66;5029752;28;20038;-79
2023/12/06 10:00:21;;;;;;;37.78;18.30;;;1.20;99.90;;;1.37;100.00;100283.25;5025933;28;20038;-80
2023/12/06 10:02:55;;;;;;;36.43;19.97;;;1.20;99.90;;;1.53;100.00;100294.00;5029095;28;20135;-81
2023/12/06 10:05:22;;;;;;;37.78;18.42;;;1.30;99.90;;;1.40;100.00;100304.41;5019253;28;20310;-81
2023/12/06 10:07:49;;;;;;;34.00;18.50;;;1.30;99.90;;;1.58;100.00;100301.59;5029611;28;20044;-81